Time;durP1;ratioP1;P1;durP2;ratioP2;P2;SDS_P1;SDS_P2;PMS_P1;PMS_P2;Temp;Humidity;BMP_temperature;BMP_pressure;BME280_temperature;BME280_humidity;BME280_pressure;Samples;Min_cycle;Max_cycle;Signal;HPM_P1;HPM_P2
2022/01/25 00:09:48;;;;;;;77.95;46.38;;;4.30;99.90;;;;;;4993475;28;20038;-79
2022/01/25 00:28:46;;;;;;;82.23;46.57;;;4.20;99.90;;;;;;4966282;28;20068;-79
2022/01/25 00:31:17;;;;;;;76.03;43.73;;;4.30;99.90;;;;;;4970085;28;20053;-78
2022/01/25 00:33:45;;;;;;;74.70;45.07;;;4.20;99.90;;;;;;4991231;28;20050;-78
2022/01/25 00:36:15;;;;;;;75.73;44.40;;;4.20;99.90;;;;;;4971845;28;20092;-78
2022/01/25 00:38:41;;;;;;;76.67;46.83;;;4.20;99.90;;;;;;4974987;28;20058;-78
2022/01/25 00:41:07;;;;;;;71.97;44.03;;;4.30;99.90;;;;;;4987293;28;20046;-78
2022/01/25 00:43:33;;;;;;;76.70;46.47;;;4.20;99.90;;;;;;4975622;28;20547;-78
2022/01/25 00:46:02;;;;;;;75.60;44.57;;;4.30;99.90;;;;;;5008003;28;20038;-78
2022/01/25 00:48:42;;;;;;;75.03;45.07;;;4.20;99.90;;;;;;4979554;28;20042;-78
2022/01/25 00:51:34;;;;;;;74.57;43.93;;;4.20;99.90;;;;;;4991706;28;20043;-78
2022/01/25 00:54:10;;;;;;;77.00;45.03;;;4.20;99.90;;;;;;4953688;28;20044;-78
2022/01/25 00:56:38;;;;;;;73.27;45.37;;;4.20;99.90;;;;;;4976127;28;20050;-78
2022/01/25 00:59:06;;;;;;;77.43;46.03;;;4.20;99.90;;;;;;4986931;28;20112;-79
2022/01/25 01:01:35;;;;;;;79.67;47.57;;;4.20;99.90;;;;;;4991022;28;20057;-78
2022/01/25 01:04:01;;;;;;;74.20;45.87;;;4.20;99.90;;;;;;4974993;28;20109;-78
2022/01/25 01:06:26;;;;;;;72.87;44.63;;;4.20;99.90;;;;;;4984893;28;20042;-78
2022/01/25 01:08:52;;;;;;;80.27;47.87;;;4.20;99.90;;;;;;4990325;28;20133;-78
2022/01/25 01:11:28;;;;;;;79.10;47.37;;;4.10;99.90;;;;;;5000425;28;20140;-78
2022/01/25 01:14:01;;;;;;;78.57;46.83;;;4.10;99.90;;;;;;4984249;28;20058;-78
2022/01/25 01:30:41;;;;;;;83.53;47.50;;;4.10;99.90;;;;;;4969105;28;19933;-77
2022/01/25 01:36:02;;;;;;;80.47;48.97;;;4.10;99.90;;;;;;4983469;28;20416;-79
2022/01/25 01:43:54;;;;;;;79.57;46.58;;;4.10;99.90;;;;;;4988691;28;20039;-78
2022/01/25 01:46:56;;;;;;;86.47;49.23;;;4.10;99.90;;;;;;4986118;28;20517;-78
2022/01/25 01:49:09;;;;;;;80.57;48.63;;;4.10;99.90;;;;;;4982490;28;20116;-79
2022/01/25 01:51:38;;;;;;;83.57;49.13;;;4.00;99.90;;;;;;4977681;28;20109;-78
2022/01/25 01:54:06;;;;;;;84.23;49.03;;;4.00;99.90;;;;;;4984833;28;20046;-78
2022/01/25 01:56:33;;;;;;;84.20;49.10;;;4.00;99.90;;;;;;4958414;28;20069;-79
2022/01/25 01:59:03;;;;;;;80.07;47.87;;;4.00;99.90;;;;;;4952829;28;20060;-78
2022/01/25 02:01:31;;;;;;;81.93;48.47;;;4.00;99.90;;;;;;4983485;28;20085;-79
2022/01/25 02:03:58;;;;;;;76.30;46.30;;;4.00;99.90;;;;;;4973543;28;20039;-78
2022/01/25 02:06:24;;;;;;;80.57;47.60;;;4.00;99.90;;;;;;4973820;28;20549;-79
2022/01/25 02:08:50;;;;;;;80.57;48.87;;;4.00;99.90;;;;;;4974347;28;20129;-79
2022/01/25 02:11:16;;;;;;;79.90;48.03;;;4.00;99.90;;;;;;4984828;28;20057;-79
2022/01/25 02:13:42;;;;;;;80.83;48.00;;;4.00;99.90;;;;;;4974813;28;20066;-79
2022/01/25 02:24:28;;;;;;;78.83;46.63;;;4.00;99.90;;;;;;4992500;28;20043;-78
2022/01/25 02:26:56;;;;;;;78.90;47.17;;;4.00;99.90;;;;;;4994555;28;20054;-79
2022/01/25 02:29:22;;;;;;;83.43;47.93;;;4.00;99.90;;;;;;4974348;28;20094;-79
2022/01/25 02:31:48;;;;;;;83.13;49.03;;;4.00;99.90;;;;;;4994333;28;20039;-79
2022/01/25 02:34:14;;;;;;;78.07;47.23;;;4.00;99.90;;;;;;4988459;28;20101;-79
2022/01/25 02:36:39;;;;;;;83.13;48.70;;;4.00;99.90;;;;;;4972816;28;20073;-79
2022/01/25 02:39:07;;;;;;;84.33;48.80;;;4.00;99.90;;;;;;4978904;28;20038;-79
2022/01/25 02:41:33;;;;;;;85.47;49.37;;;4.00;99.90;;;;;;4983298;28;20051;-79
2022/01/25 02:43:59;;;;;;;81.73;48.27;;;4.00;99.90;;;;;;4993443;28;20038;-79
2022/01/25 02:48:59;;;;;;;82.37;47.97;;;4.00;99.90;;;;;;4988850;28;20102;-79
2022/01/25 02:51:28;;;;;;;83.07;48.77;;;4.00;99.90;;;;;;4970852;28;20073;-78
2022/01/25 02:53:55;;;;;;;84.57;48.87;;;3.90;99.90;;;;;;4983897;28;20046;-79
2022/01/25 02:56:24;;;;;;;85.80;49.40;;;4.00;99.90;;;;;;5009139;28;20049;-80
2022/01/25 02:58:50;;;;;;;80.73;47.23;;;3.90;99.90;;;;;;4986726;28;20046;-79
2022/01/25 03:01:16;;;;;;;81.47;47.67;;;3.90;99.90;;;;;;4993684;28;20128;-78
2022/01/25 03:03:42;;;;;;;82.53;49.23;;;3.90;99.90;;;;;;4989440;28;20058;-80
2022/01/25 03:06:08;;;;;;;83.93;49.77;;;3.90;99.90;;;;;;4990923;28;20054;-79
2022/01/25 03:08:34;;;;;;;82.70;48.47;;;3.90;99.90;;;;;;4975285;28;20324;-79
2022/01/25 03:11:01;;;;;;;80.70;49.07;;;3.90;99.90;;;;;;4990086;28;20046;-79
2022/01/25 03:13:34;;;;;;;83.30;49.43;;;3.90;99.90;;;;;;4993314;28;20125;-79
2022/01/25 03:16:04;;;;;;;82.40;47.87;;;3.90;99.90;;;;;;4986496;28;20497;-79
2022/01/25 03:23:40;;;;;;;87.90;50.35;;;3.90;99.90;;;;;;4991047;28;20435;-79
2022/01/25 03:26:06;;;;;;;84.27;48.00;;;3.90;99.90;;;;;;4991156;28;20047;-79
2022/01/25 03:28:33;;;;;;;83.17;48.63;;;3.90;99.90;;;;;;4978260;28;20398;-79
2022/01/25 03:30:59;;;;;;;79.90;47.40;;;4.00;99.90;;;;;;4986562;28;20500;-79
2022/01/25 03:33:25;;;;;;;79.67;48.47;;;3.90;99.90;;;;;;4987861;28;20085;-79
2022/01/25 03:35:51;;;;;;;83.23;49.83;;;4.00;99.90;;;;;;4990758;28;20050;-78
2022/01/25 03:38:17;;;;;;;82.17;49.27;;;4.00;99.90;;;;;;4985902;28;20053;-79
2022/01/25 03:40:44;;;;;;;81.43;48.37;;;3.90;99.90;;;;;;4973121;28;20038;-78
2022/01/25 03:43:10;;;;;;;88.63;49.63;;;3.90;99.90;;;;;;4973892;28;20052;-79
2022/01/25 03:45:39;;;;;;;82.40;46.47;;;3.90;99.90;;;;;;4956830;28;20129;-79
2022/01/25 03:50:40;;;;;;;80.90;48.03;;;4.00;99.90;;;;;;4984721;28;20400;-78
2022/01/25 03:53:06;;;;;;;85.53;48.13;;;4.00;99.90;;;;;;4971518;28;20061;-79
2022/01/25 03:55:31;;;;;;;81.83;49.23;;;4.00;99.90;;;;;;4993703;28;20504;-79
2022/01/25 03:57:57;;;;;;;79.47;47.70;;;4.00;99.90;;;;;;4953734;28;20061;-78
2022/01/25 04:00:23;;;;;;;84.13;48.30;;;4.00;99.90;;;;;;4996527;28;20066;-79
2022/01/25 04:02:59;;;;;;;80.60;48.53;;;3.90;99.90;;;;;;4970944;28;20046;-79
2022/01/25 04:05:36;;;;;;;81.97;47.27;;;3.90;99.90;;;;;;4971712;28;20050;-78
2022/01/25 04:08:02;;;;;;;85.80;48.33;;;4.00;99.90;;;;;;4981555;28;20261;-78
2022/01/25 04:10:27;;;;;;;88.33;48.43;;;3.90;99.90;;;;;;4991149;28;20050;-78
2022/01/25 04:12:53;;;;;;;84.07;50.13;;;4.00;99.90;;;;;;4974765;28;20818;-78
2022/01/25 04:15:19;;;;;;;85.67;48.30;;;4.00;99.90;;;;;;4982648;28;20047;-79
2022/01/25 04:17:50;;;;;;;82.47;48.03;;;3.90;99.90;;;;;;4990835;28;20043;-78
2022/01/25 04:20:23;;;;;;;86.53;48.77;;;4.00;99.90;;;;;;4970599;28;20464;-78
2022/01/25 04:25:33;;;;;;;80.68;46.55;;;4.00;99.90;;;;;;4997105;28;20050;-78
2022/01/25 04:27:59;;;;;;;80.67;47.20;;;4.00;99.90;;;;;;4990304;28;20050;-79
2022/01/25 04:30:25;;;;;;;80.63;47.73;;;4.00;99.90;;;;;;4975599;28;20043;-78
2022/01/25 04:33:04;;;;;;;83.77;48.60;;;4.10;99.90;;;;;;4986923;28;20038;-79
2022/01/25 04:49:10;;;;;;;79.53;46.47;;;4.00;99.90;;;;;;4982605;28;20085;-78
2022/01/25 04:51:52;;;;;;;81.30;46.50;;;4.00;99.90;;;;;;4968010;28;20050;-79
2022/01/25 04:54:41;;;;;;;82.83;47.37;;;4.00;99.90;;;;;;4999435;28;20050;-78
2022/01/25 04:57:20;;;;;;;85.00;47.20;;;4.00;99.90;;;;;;4985345;28;20058;-78
2022/01/25 04:59:58;;;;;;;84.07;46.37;;;4.00;99.90;;;;;;4987633;28;20053;-79
2022/01/25 05:04:59;;;;;;;86.37;48.10;;;4.00;99.90;;;;;;4990473;28;20041;-78
2022/01/25 05:07:41;;;;;;;80.40;46.63;;;4.00;99.90;;;;;;4984460;28;20047;-79
2022/01/25 05:10:08;;;;;;;85.70;47.47;;;4.00;99.90;;;;;;5003344;28;20053;-78
2022/01/25 05:12:41;;;;;;;85.27;47.00;;;4.00;99.90;;;;;;4976959;28;20498;-78
2022/01/25 05:15:22;;;;;;;83.77;47.80;;;4.00;99.90;;;;;;4985703;28;20046;-78
2022/01/25 05:18:03;;;;;;;83.27;46.60;;;4.10;99.90;;;;;;4975290;28;20432;-78
2022/01/25 05:23:14;;;;;;;77.55;46.03;;;4.10;99.90;;;;;;4991663;28;20412;-79
2022/01/25 05:25:40;;;;;;;85.53;47.60;;;4.10;99.90;;;;;;4987693;28;20567;-79
2022/01/25 05:28:06;;;;;;;84.43;48.03;;;4.10;99.90;;;;;;4970061;28;20054;-79
2022/01/25 05:30:32;;;;;;;86.70;48.17;;;4.10;99.90;;;;;;4963282;28;20137;-79
2022/01/25 05:32:58;;;;;;;88.00;47.87;;;4.10;99.90;;;;;;4974867;28;20057;-79
2022/01/25 05:35:23;;;;;;;81.23;45.90;;;4.10;99.90;;;;;;4989574;28;20125;-79
2022/01/25 05:37:49;;;;;;;85.63;46.87;;;4.00;99.90;;;;;;4985709;28;20084;-79
2022/01/25 05:40:27;;;;;;;88.23;47.73;;;4.00;99.90;;;;;;4990178;28;20480;-79
2022/01/25 05:45:55;;;;;;;84.63;46.97;;;4.00;99.90;;;;;;4990679;28;20035;-79
2022/01/25 05:48:21;;;;;;;87.53;47.73;;;4.10;99.90;;;;;;4984302;28;20043;-79
2022/01/25 05:50:46;;;;;;;91.63;48.70;;;4.10;99.90;;;;;;4975667;28;20106;-78
2022/01/25 05:53:12;;;;;;;82.13;47.87;;;4.10;99.90;;;;;;4971274;28;20475;-78
2022/01/25 05:55:39;;;;;;;86.63;46.30;;;4.10;99.90;;;;;;4985187;28;20042;-78
2022/01/25 05:58:05;;;;;;;82.07;45.00;;;4.10;99.90;;;;;;4978571;28;20104;-78
2022/01/25 06:00:31;;;;;;;85.13;47.80;;;4.10;99.90;;;;;;4960601;28;20066;-79
2022/01/25 06:02:56;;;;;;;83.23;45.30;;;4.10;99.90;;;;;;4978183;28;20043;-79
2022/01/25 06:05:25;;;;;;;86.40;46.50;;;4.10;99.90;;;;;;4987227;28;20484;-79
2022/01/25 06:07:51;;;;;;;86.03;47.33;;;4.10;99.90;;;;;;4987496;28;20046;-78
2022/01/25 06:10:17;;;;;;;87.47;47.70;;;4.00;99.90;;;;;;4993769;28;20472;-79
2022/01/25 06:12:45;;;;;;;85.53;46.07;;;4.10;99.90;;;;;;4970617;28;20046;-79
2022/01/25 06:15:11;;;;;;;84.23;46.13;;;4.10;99.90;;;;;;4988788;28;20493;-78
2022/01/25 06:17:36;;;;;;;82.53;45.70;;;4.10;99.90;;;;;;4989940;28;20049;-78
2022/01/25 06:20:03;;;;;;;84.27;46.70;;;4.10;99.90;;;;;;4993884;28;20038;-79
2022/01/25 06:22:28;;;;;;;83.40;46.27;;;4.10;99.90;;;;;;4993311;28;20060;-78
2022/01/25 06:24:54;;;;;;;85.63;45.70;;;4.10;99.90;;;;;;4965930;28;20492;-79
2022/01/25 06:27:20;;;;;;;84.23;46.13;;;4.10;99.90;;;;;;4976177;28;20057;-78
2022/01/25 06:29:47;;;;;;;84.27;46.20;;;4.10;99.90;;;;;;4974064;28;20132;-79
2022/01/25 06:32:14;;;;;;;83.77;46.43;;;4.10;99.90;;;;;;4976677;28;20105;-78
2022/01/25 06:34:39;;;;;;;85.87;47.40;;;4.10;99.90;;;;;;4993142;28;20618;-78
2022/01/25 06:37:05;;;;;;;85.97;47.77;;;4.10;99.90;;;;;;4984775;28;20126;-78
2022/01/25 06:39:31;;;;;;;85.03;47.10;;;4.10;99.90;;;;;;4975370;28;20045;-78
2022/01/25 06:41:57;;;;;;;82.90;45.17;;;4.10;99.90;;;;;;4976267;28;20444;-79
2022/01/25 06:44:23;;;;;;;88.17;48.17;;;4.00;99.90;;;;;;4983967;28;20093;-78
2022/01/25 06:46:50;;;;;;;82.67;44.73;;;4.10;99.90;;;;;;4991964;28;20160;-79
2022/01/25 06:49:16;;;;;;;87.27;45.83;;;4.10;99.90;;;;;;4970142;28;20097;-79
2022/01/25 06:51:42;;;;;;;88.87;47.30;;;4.10;99.90;;;;;;4977785;28;20588;-79
2022/01/25 06:54:08;;;;;;;82.63;46.20;;;4.10;99.90;;;;;;4972652;28;20655;-80
2022/01/25 06:56:34;;;;;;;87.83;45.73;;;4.10;99.90;;;;;;4969318;28;20067;-79
2022/01/25 06:59:00;;;;;;;91.07;47.47;;;4.10;99.90;;;;;;4987714;28;20038;-79
2022/01/25 07:01:26;;;;;;;88.50;46.20;;;4.10;99.90;;;;;;4968479;28;20046;-79
2022/01/25 07:03:53;;;;;;;85.47;45.90;;;4.10;99.90;;;;;;4949275;28;20043;-80
2022/01/25 07:06:18;;;;;;;89.50;48.17;;;4.10;99.90;;;;;;4971683;28;20058;-79
2022/01/25 07:08:45;;;;;;;84.00;45.90;;;4.10;99.90;;;;;;4985644;28;20050;-79
2022/01/25 07:11:11;;;;;;;77.57;42.63;;;4.10;99.90;;;;;;4986519;28;20130;-79
2022/01/25 07:13:37;;;;;;;88.17;46.47;;;4.10;99.90;;;;;;4955362;28;20042;-78
2022/01/25 07:16:03;;;;;;;84.87;46.97;;;4.10;99.90;;;;;;4974334;28;20116;-79
2022/01/25 07:18:28;;;;;;;87.23;45.87;;;4.10;99.90;;;;;;4985957;28;20038;-79
2022/01/25 07:20:56;;;;;;;87.00;46.33;;;4.10;99.90;;;;;;4989114;28;20574;-79
2022/01/25 07:23:21;;;;;;;84.67;43.77;;;4.10;99.90;;;;;;4975203;28;20081;-79
2022/01/25 07:25:47;;;;;;;86.57;46.93;;;4.10;99.90;;;;;;4984596;28;20050;-79
2022/01/25 07:28:13;;;;;;;91.90;47.87;;;4.10;99.90;;;;;;4985694;28;20043;-80
2022/01/25 07:30:38;;;;;;;90.57;46.37;;;4.10;99.90;;;;;;4972274;28;20037;-79
2022/01/25 07:33:05;;;;;;;94.13;45.60;;;4.10;99.90;;;;;;4986224;28;20049;-79
2022/01/25 07:35:32;;;;;;;88.50;45.20;;;4.10;99.90;;;;;;4986225;28;20378;-79
2022/01/25 07:37:59;;;;;;;86.60;47.00;;;4.10;99.90;;;;;;4985740;28;20042;-79
2022/01/25 07:40:25;;;;;;;91.03;45.97;;;4.00;99.90;;;;;;4991748;28;20500;-80
2022/01/25 07:42:50;;;;;;;87.90;45.57;;;4.00;99.90;;;;;;4971945;28;20049;-79
2022/01/25 07:45:16;;;;;;;87.47;46.73;;;4.00;99.90;;;;;;4965851;28;20047;-80
2022/01/25 07:47:42;;;;;;;88.33;47.00;;;4.10;99.90;;;;;;4972671;28;20168;-80
2022/01/25 07:50:10;;;;;;;90.97;45.73;;;4.00;99.90;;;;;;5000660;28;20141;-80
2022/01/25 07:52:36;;;;;;;98.20;47.23;;;4.00;99.90;;;;;;4971190;28;20038;-79
2022/01/25 07:55:05;;;;;;;89.63;46.80;;;4.00;99.90;;;;;;5005104;28;20038;-79
2022/01/25 07:57:31;;;;;;;90.80;47.50;;;4.00;99.90;;;;;;4982765;28;20042;-79
2022/01/25 07:59:58;;;;;;;87.83;45.57;;;4.10;99.90;;;;;;4970305;28;20042;-78
2022/01/25 08:02:24;;;;;;;80.90;45.27;;;4.00;99.90;;;;;;4970459;28;20484;-79
2022/01/25 08:04:51;;;;;;;91.33;46.83;;;4.00;99.90;;;;;;5001263;28;20094;-79
2022/01/25 08:07:17;;;;;;;89.13;46.07;;;4.00;99.90;;;;;;4988294;28;20041;-79
2022/01/25 08:09:43;;;;;;;91.00;47.57;;;4.10;99.90;;;;;;4985963;28;20126;-78
2022/01/25 08:12:11;;;;;;;91.80;47.37;;;4.10;99.90;;;;;;4987318;28;20038;-79
2022/01/25 08:14:38;;;;;;;89.93;45.83;;;4.10;99.90;;;;;;4984474;28;20050;-78
2022/01/25 08:17:05;;;;;;;93.63;46.97;;;4.00;99.90;;;;;;4971362;28;20061;-79
2022/01/25 08:19:31;;;;;;;85.83;45.80;;;4.00;99.90;;;;;;4972715;28;20038;-79
2022/01/25 08:21:57;;;;;;;89.60;45.10;;;4.10;99.90;;;;;;4972171;28;20037;-78
2022/01/25 08:24:23;;;;;;;88.43;48.30;;;4.10;99.90;;;;;;4987845;28;20049;-78
2022/01/25 08:26:49;;;;;;;88.97;46.53;;;4.10;99.90;;;;;;4958931;28;20046;-78
2022/01/25 08:29:16;;;;;;;86.83;46.47;;;4.10;99.90;;;;;;4988645;28;20070;-79
2022/01/25 08:31:42;;;;;;;88.03;47.50;;;4.10;99.90;;;;;;4953601;28;20543;-79
2022/01/25 08:34:11;;;;;;;85.67;44.13;;;4.10;99.90;;;;;;4980041;28;20047;-78
2022/01/25 08:36:37;;;;;;;87.63;44.87;;;4.10;99.90;;;;;;4954510;28;20069;-78
2022/01/25 08:39:04;;;;;;;84.13;46.60;;;4.20;99.90;;;;;;4971940;28;20069;-78
2022/01/25 08:41:30;;;;;;;81.23;44.63;;;4.20;99.90;;;;;;4972285;28;20106;-79
2022/01/25 08:43:56;;;;;;;84.60;44.77;;;4.20;99.90;;;;;;4988055;28;20058;-79
2022/01/25 08:46:23;;;;;;;90.10;47.30;;;4.20;99.90;;;;;;4974749;28;20531;-79
2022/01/25 08:48:49;;;;;;;87.40;44.47;;;4.20;99.90;;;;;;4970299;28;20282;-79
2022/01/25 08:51:15;;;;;;;86.50;44.17;;;4.20;99.90;;;;;;4971435;28;20396;-79
2022/01/25 08:53:41;;;;;;;88.67;45.77;;;4.20;99.90;;;;;;4969141;28;20056;-79
2022/01/25 08:56:08;;;;;;;86.30;44.53;;;4.20;99.90;;;;;;4971492;28;20467;-79
2022/01/25 08:58:34;;;;;;;85.33;45.90;;;4.20;99.90;;;;;;4972089;28;20047;-78
2022/01/25 09:00:59;;;;;;;86.07;44.97;;;4.30;99.90;;;;;;4953854;28;20091;-79
2022/01/25 09:03:27;;;;;;;85.90;45.37;;;4.30;99.90;;;;;;4968094;28;20046;-78
2022/01/25 09:05:53;;;;;;;85.27;44.67;;;4.20;99.90;;;;;;4983719;28;20129;-78
2022/01/25 09:08:21;;;;;;;89.07;45.17;;;4.30;99.90;;;;;;4970791;28;20077;-79
2022/01/25 09:10:49;;;;;;;82.63;44.30;;;4.30;99.90;;;;;;4985251;28;20038;-79
2022/01/25 09:13:15;;;;;;;83.27;45.17;;;4.30;99.90;;;;;;4969110;28;20073;-78
2022/01/25 09:15:41;;;;;;;84.50;45.27;;;4.30;99.90;;;;;;4968590;28;20061;-78
2022/01/25 09:18:07;;;;;;;92.00;44.50;;;4.30;99.90;;;;;;4971137;28;20046;-78
2022/01/25 09:20:34;;;;;;;85.77;44.00;;;4.30;99.90;;;;;;4953150;28;20152;-78
2022/01/25 09:22:59;;;;;;;83.83;43.63;;;4.40;99.90;;;;;;4970023;28;20109;-78
2022/01/25 09:25:25;;;;;;;83.77;43.80;;;4.40;99.90;;;;;;4954860;28;20034;-78
2022/01/25 09:27:51;;;;;;;80.70;43.70;;;4.30;99.90;;;;;;4974115;28;20164;-78
2022/01/25 09:30:17;;;;;;;87.10;44.63;;;4.40;99.90;;;;;;4992953;28;20061;-79
2022/01/25 09:32:43;;;;;;;85.93;44.30;;;4.30;99.90;;;;;;4959905;28;20475;-79
2022/01/25 09:35:08;;;;;;;87.47;44.90;;;4.30;99.90;;;;;;4973591;28;20042;-79
2022/01/25 09:37:36;;;;;;;85.67;43.17;;;4.30;99.90;;;;;;4984215;28;20124;-79
2022/01/25 09:40:03;;;;;;;88.37;42.83;;;4.30;99.90;;;;;;4957200;28;20057;-78
2022/01/25 09:42:30;;;;;;;84.20;42.77;;;4.30;99.90;;;;;;4985115;28;20053;-78
2022/01/25 09:44:57;;;;;;;87.47;44.70;;;4.30;99.90;;;;;;4971854;28;20050;-78
2022/01/25 09:47:23;;;;;;;92.27;44.60;;;4.40;99.90;;;;;;4986595;28;20424;-78
2022/01/25 09:49:49;;;;;;;81.27;43.47;;;4.40;99.90;;;;;;4974077;28;20038;-78
2022/01/25 09:52:17;;;;;;;84.97;42.80;;;4.40;99.90;;;;;;4986577;28;20491;-77
2022/01/25 09:54:52;;;;;;;83.90;43.13;;;4.40;99.90;;;;;;5003982;28;20041;-78
2022/01/25 09:57:18;;;;;;;89.43;43.77;;;4.50;99.90;;;;;;4971359;28;20054;-78
2022/01/25 09:59:44;;;;;;;85.33;43.37;;;4.50;99.90;;;;;;4955272;28;20108;-78
2022/01/25 10:02:10;;;;;;;87.20;44.30;;;4.50;99.90;;;;;;4973036;28;20054;-78
2022/01/25 10:04:39;;;;;;;86.67;44.00;;;4.50;99.90;;;;;;4990835;28;20038;-79
2022/01/25 10:07:09;;;;;;;86.53;44.40;;;4.50;99.90;;;;;;4973698;28;20073;-77
2022/01/25 10:09:38;;;;;;;81.20;43.37;;;4.50;99.90;;;;;;4975040;28;20049;-78
2022/01/25 10:12:19;;;;;;;81.30;43.43;;;4.50;99.90;;;;;;4972170;28;20054;-78
2022/01/25 10:14:53;;;;;;;83.20;43.43;;;4.50;99.90;;;;;;4969094;28;20042;-79
2022/01/25 10:17:29;;;;;;;85.30;43.07;;;4.60;99.90;;;;;;4972074;28;20054;-78
2022/01/25 10:19:55;;;;;;;85.90;44.30;;;4.60;99.90;;;;;;4990490;28;20042;-79
2022/01/25 10:22:21;;;;;;;89.33;42.70;;;4.60;99.90;;;;;;4974756;28;20412;-79
2022/01/25 10:24:47;;;;;;;84.17;43.93;;;4.60;99.90;;;;;;4990799;28;20050;-79
2022/01/25 10:27:13;;;;;;;85.40;43.83;;;4.60;99.90;;;;;;4973237;28;20591;-77
2022/01/25 10:29:41;;;;;;;89.23;43.40;;;4.60;99.90;;;;;;4991020;28;20074;-77
2022/01/25 10:32:10;;;;;;;79.73;42.03;;;4.60;99.90;;;;;;4989489;28;20667;-78
2022/01/25 10:34:40;;;;;;;85.83;43.13;;;4.60;99.90;;;;;;4957841;28;20034;-79
2022/01/25 10:37:07;;;;;;;85.00;44.00;;;4.60;99.90;;;;;;4986823;28;20416;-79
2022/01/25 10:39:35;;;;;;;92.20;45.37;;;4.60;99.90;;;;;;4989313;28;20046;-78
2022/01/25 10:42:02;;;;;;;83.80;44.33;;;4.70;99.90;;;;;;4989069;28;20039;-79
2022/01/25 10:44:48;;;;;;;84.23;45.63;;;4.70;99.90;;;;;;4972331;28;20097;-78
2022/01/25 10:47:14;;;;;;;79.83;43.47;;;4.70;99.90;;;;;;4989693;28;20493;-79
2022/01/25 10:49:43;;;;;;;79.70;42.43;;;4.70;99.90;;;;;;4973763;28;20112;-79
2022/01/25 10:52:09;;;;;;;89.37;45.23;;;4.70;99.90;;;;;;4975835;28;20492;-79
2022/01/25 10:54:38;;;;;;;87.97;43.50;;;4.70;99.90;;;;;;4990714;28;20053;-79
2022/01/25 10:57:05;;;;;;;83.50;43.23;;;4.60;99.90;;;;;;4988974;28;20459;-78
2022/01/25 10:59:33;;;;;;;87.77;44.37;;;4.60;99.90;;;;;;5001969;28;20074;-79
2022/01/25 11:02:02;;;;;;;84.90;42.90;;;4.60;99.90;;;;;;4970102;28;20514;-79
2022/01/25 11:04:32;;;;;;;85.53;44.30;;;4.70;99.90;;;;;;4972880;28;20104;-78
2022/01/25 11:07:00;;;;;;;82.47;43.37;;;4.70;99.90;;;;;;4969880;28;20897;-79
2022/01/25 11:09:29;;;;;;;88.23;44.17;;;4.70;99.90;;;;;;4988368;28;20055;-78
2022/01/25 11:11:57;;;;;;;85.83;44.43;;;4.60;99.90;;;;;;4955263;28;20058;-78
2022/01/25 11:17:08;;;;;;;82.47;42.23;;;4.70;99.90;;;;;;4989158;28;20046;-79
2022/01/25 11:19:34;;;;;;;82.53;42.97;;;4.70;99.90;;;;;;4956323;28;20051;-78
2022/01/25 11:22:00;;;;;;;83.70;43.80;;;4.70;99.90;;;;;;4972131;28;20046;-78
2022/01/25 11:24:29;;;;;;;85.43;42.03;;;4.70;99.90;;;;;;4985460;28;20404;-79
2022/01/25 11:26:55;;;;;;;88.87;44.10;;;4.70;99.90;;;;;;4988806;28;20069;-78
2022/01/25 11:29:21;;;;;;;91.07;44.13;;;4.70;99.90;;;;;;4959170;28;20046;-78
2022/01/25 11:31:51;;;;;;;84.57;43.43;;;4.70;99.90;;;;;;4955716;28;20484;-79
2022/01/25 11:34:23;;;;;;;86.07;43.57;;;4.70;99.90;;;;;;4987379;28;20042;-79
2022/01/25 11:36:52;;;;;;;86.17;43.07;;;4.70;99.90;;;;;;4966164;28;20513;-78
2022/01/25 11:39:21;;;;;;;88.73;44.13;;;4.70;99.90;;;;;;4988888;28;20141;-78
2022/01/25 11:41:47;;;;;;;90.93;43.67;;;4.70;99.90;;;;;;4990205;28;20531;-78
2022/01/25 11:44:16;;;;;;;84.27;42.30;;;4.70;99.90;;;;;;4969891;28;20054;-77
2022/01/25 11:46:48;;;;;;;87.90;43.13;;;4.70;99.90;;;;;;4975919;28;20034;-79
2022/01/25 11:49:16;;;;;;;82.33;43.47;;;4.80;99.90;;;;;;4969970;28;20462;-78
2022/01/25 11:51:44;;;;;;;87.20;41.60;;;4.70;99.90;;;;;;4953925;28;20411;-79
2022/01/25 11:54:10;;;;;;;89.77;43.87;;;4.80;99.90;;;;;;5006026;28;20046;-78
2022/01/25 11:56:36;;;;;;;84.50;43.33;;;4.80;99.90;;;;;;4987984;28;20423;-78
2022/01/25 11:59:02;;;;;;;81.77;41.03;;;4.80;99.90;;;;;;4990223;28;20073;-79
2022/01/25 12:01:29;;;;;;;85.93;42.70;;;4.80;99.90;;;;;;5000259;28;20039;-79
2022/01/25 12:03:58;;;;;;;85.23;42.07;;;4.80;99.90;;;;;;4987297;28;20050;-78
2022/01/25 12:06:30;;;;;;;84.43;42.83;;;4.80;99.90;;;;;;4991865;28;20064;-78
2022/01/25 12:11:35;;;;;;;;;;;4.80;99.90;;;;;;4992610;28;20089;-78
2022/01/25 12:14:23;;;;;;;87.93;41.73;;;4.80;99.90;;;;;;4966366;28;20268;-79
2022/01/25 12:16:53;;;;;;;82.60;40.40;;;4.80;99.90;;;;;;4970604;28;20049;-78
2022/01/25 12:19:20;;;;;;;83.23;42.20;;;4.80;99.90;;;;;;4980386;28;20452;-78
2022/01/25 12:22:12;;;;;;;95.40;43.87;;;4.80;99.90;;;;;;4968679;28;20046;-78
2022/01/25 12:25:11;;;;;;;81.50;40.80;;;4.80;99.90;;;;;;4987205;28;20054;-78
2022/01/25 12:27:48;;;;;;;80.57;40.90;;;4.80;99.90;;;;;;4970775;28;20053;-78
2022/01/25 12:30:18;;;;;;;80.60;42.37;;;4.80;99.90;;;;;;4986385;28;20506;-78
2022/01/25 12:32:55;;;;;;;85.13;42.20;;;4.80;99.90;;;;;;4985283;28;20048;-79
2022/01/25 12:35:36;;;;;;;82.43;43.17;;;4.80;99.90;;;;;;4988137;28;20039;-78
2022/01/25 12:38:05;;;;;;;85.10;41.90;;;4.80;99.90;;;;;;4955365;28;20046;-77
2022/01/25 12:40:36;;;;;;;83.40;42.57;;;4.70;99.90;;;;;;4983415;28;20098;-77
2022/01/25 12:43:04;;;;;;;85.10;42.70;;;4.70;99.90;;;;;;4984983;28;20137;-78
2022/01/25 12:45:32;;;;;;;85.40;42.80;;;4.70;99.90;;;;;;4987539;28;20038;-78
2022/01/25 12:48:00;;;;;;;85.80;44.33;;;4.70;99.90;;;;;;4968301;28;20039;-77
2022/01/25 12:50:27;;;;;;;82.03;42.43;;;4.70;99.90;;;;;;4970718;28;20091;-78
2022/01/25 12:52:53;;;;;;;83.63;42.07;;;4.70;99.90;;;;;;4971907;28;20042;-77
2022/01/25 12:55:24;;;;;;;92.73;42.80;;;4.80;99.90;;;;;;4967131;28;20504;-79
2022/01/25 12:57:53;;;;;;;87.27;41.93;;;4.80;99.90;;;;;;4951998;28;20521;-78
2022/01/25 13:00:19;;;;;;;88.17;42.37;;;4.70;99.90;;;;;;4953124;28;20046;-78
2022/01/25 13:02:45;;;;;;;92.40;43.50;;;4.70;99.90;;;;;;4971409;28;20049;-77
2022/01/25 13:05:16;;;;;;;87.13;43.43;;;4.70;99.90;;;;;;4984830;28;20050;-79
2022/01/25 13:07:42;;;;;;;86.87;42.77;;;4.70;99.90;;;;;;4969107;28;20416;-78
2022/01/25 13:10:11;;;;;;;86.37;43.10;;;4.70;99.90;;;;;;4964997;28;20042;-79
2022/01/25 13:12:54;;;;;;;83.43;40.67;;;4.80;99.90;;;;;;4985701;28;20125;-78
2022/01/25 13:16:12;;;;;;;90.70;42.50;;;4.80;99.90;;;;;;4987235;28;20468;-78
2022/01/25 13:18:13;;;;;;;83.83;42.47;;;4.80;99.90;;;;;;4962636;28;20062;-78
2022/01/25 13:20:42;;;;;;;87.07;43.13;;;4.80;99.90;;;;;;4952352;28;21375;-78
2022/01/25 13:23:08;;;;;;;89.60;42.53;;;4.80;99.90;;;;;;4987156;28;20046;-78
2022/01/25 13:28:33;;;;;;;92.90;44.10;;;4.80;99.90;;;;;;5002949;28;20405;-78
2022/01/25 13:31:05;;;;;;;90.40;44.30;;;4.80;99.90;;;;;;4969531;28;20404;-78
2022/01/25 13:33:31;;;;;;;88.83;42.77;;;4.80;99.90;;;;;;4971518;28;20456;-77
2022/01/25 13:35:57;;;;;;;82.77;42.00;;;4.80;99.90;;;;;;4971688;28;20038;-78
2022/01/25 13:38:25;;;;;;;88.10;41.93;;;4.80;99.90;;;;;;4968144;28;20814;-79
2022/01/25 13:41:07;;;;;;;84.07;42.07;;;4.80;99.90;;;;;;4970836;28;20069;-78
2022/01/25 13:46:25;;;;;;;94.10;43.07;;;4.80;99.90;;;;;;4985040;28;20496;-79
2022/01/25 13:48:53;;;;;;;87.03;43.40;;;4.80;99.90;;;;;;4967186;28;20050;-77
2022/01/25 13:51:21;;;;;;;87.17;43.40;;;4.70;99.90;;;;;;4969164;28;20493;-78
2022/01/25 13:53:52;;;;;;;92.17;43.93;;;4.70;99.90;;;;;;4972976;28;20081;-78
2022/01/25 13:56:18;;;;;;;88.50;41.50;;;4.70;99.90;;;;;;4968859;28;20058;-78
2022/01/25 13:58:47;;;;;;;91.20;42.90;;;4.70;99.90;;;;;;4969272;28;20578;-78
2022/01/25 14:01:15;;;;;;;93.10;42.83;;;4.70;99.90;;;;;;4969998;28;20412;-78
2022/01/25 14:03:51;;;;;;;91.20;42.83;;;4.70;99.90;;;;;;4986212;28;20046;-78
2022/01/25 14:06:22;;;;;;;87.80;43.00;;;4.70;99.90;;;;;;4985785;28;20109;-78
2022/01/25 14:08:48;;;;;;;94.13;43.50;;;4.70;99.90;;;;;;4970023;28;20047;-79
2022/01/25 14:11:22;;;;;;;95.53;43.17;;;4.70;99.90;;;;;;4970898;28;20121;-79
2022/01/25 14:24:35;;;;;;;90.57;42.47;;;4.70;99.90;;;;;;4971025;28;20469;-78
2022/01/25 14:27:17;;;;;;;92.23;42.27;;;4.60;99.90;;;;;;4989021;28;20046;-78
2022/01/25 14:29:43;;;;;;;88.77;41.87;;;4.60;99.90;;;;;;4970111;28;20047;-79
2022/01/25 14:32:09;;;;;;;87.53;42.60;;;4.60;99.90;;;;;;4971208;28;20042;-79
2022/01/25 14:34:36;;;;;;;90.87;42.23;;;4.60;99.90;;;;;;4971914;28;20057;-77
2022/01/25 14:37:01;;;;;;;89.97;42.83;;;4.60;99.90;;;;;;4956581;28;20109;-78